PSP weather

Palm Springs International Airport
Palm Springs, California, United States

Public forecast

Using degrees Fahrenheit for public forecast. Weather courtesy of forecast.io.

Current aviation weather report (METAR) for Palm Springs International Airport

Retrieved 2020/07/04 04:53 UTC (36 minutes ago):

KPSP 040453Z AUTO 32013KT CLR 36/08 A2984 RMK AO2 SLP100 T03560078

Aviation forecast (TAF) for Palm Springs International Airport

Retrieved 2020-07-04 00:36 UTC (5 hours ago):

TAF KPSP 032334Z 0400/0424 32012G22KT P6SM SKC FM040700 VRB05KT P6SM SKC FM041900 09007KT P6SM SKC FM042200 32010G20KT P6SM SKC